sensor_id;sensor_type;location;lat;lon;timestamp;temperature;humidity
7360;DHT22;3720;48.274;7.796;2022-09-27T00:02:26;11.80;99.90
7360;DHT22;3720;48.274;7.796;2022-09-27T00:04:57;11.80;99.90
7360;DHT22;3720;48.274;7.796;2022-09-27T00:07:31;11.80;99.90
7360;DHT22;3720;48.274;7.796;2022-09-27T00:10:04;11.90;99.90
7360;DHT22;3720;48.274;7.796;2022-09-27T00:12:36;11.90;99.90
7360;DHT22;3720;48.274;7.796;2022-09-27T00:15:09;11.90;99.90
7360;DHT22;3720;48.274;7.796;2022-09-27T00:17:42;12.00;99.90
7360;DHT22;3720;48.274;7.796;2022-09-27T00:20:14;12.00;99.90
7360;DHT22;3720;48.274;7.796;2022-09-27T00:22:48;12.00;99.90
7360;DHT22;3720;48.274;7.796;2022-09-27T00:25:20;12.00;99.90
7360;DHT22;3720;48.274;7.796;2022-09-27T00:27:52;12.00;99.90
7360;DHT22;3720;48.274;7.796;2022-09-27T00:30:24;12.00;99.90
7360;DHT22;3720;48.274;7.796;2022-09-27T00:32:57;12.00;99.90
7360;DHT22;3720;48.274;7.796;2022-09-27T00:35:28;12.00;99.90
7360;DHT22;3720;48.274;7.796;2022-09-27T00:38:02;12.00;99.90
7360;DHT22;3720;48.274;7.796;2022-09-27T00:40:35;12.00;99.90
7360;DHT22;3720;48.274;7.796;2022-09-27T00:43:18;12.00;99.90
7360;DHT22;3720;48.274;7.796;2022-09-27T00:45:52;12.10;99.90
7360;DHT22;3720;48.274;7.796;2022-09-27T00:48:28;12.00;99.90
7360;DHT22;3720;48.274;7.796;2022-09-27T00:51:04;12.00;99.90
7360;DHT22;3720;48.274;7.796;2022-09-27T00:53:41;12.00;99.90
7360;DHT22;3720;48.274;7.796;2022-09-27T00:56:18;12.00;99.90
7360;DHT22;3720;48.274;7.796;2022-09-27T00:58:56;11.90;99.90
7360;DHT22;3720;48.274;7.796;2022-09-27T01:01:30;11.90;99.90
7360;DHT22;3720;48.274;7.796;2022-09-27T01:04:06;11.90;99.90
7360;DHT22;3720;48.274;7.796;2022-09-27T01:06:38;11.90;99.90
7360;DHT22;3720;48.274;7.796;2022-09-27T01:09:12;11.90;99.90
7360;DHT22;3720;48.274;7.796;2022-09-27T01:11:47;11.90;99.90
7360;DHT22;3720;48.274;7.796;2022-09-27T01:14:40;11.80;99.90
7360;DHT22;3720;48.274;7.796;2022-09-27T01:17:28;11.90;99.90
7360;DHT22;3720;48.274;7.796;2022-09-27T01:20:49;11.80;99.90
7360;DHT22;3720;48.274;7.796;2022-09-27T01:26:41;11.80;99.90
7360;DHT22;3720;48.274;7.796;2022-09-27T01:29:23;11.80;99.90
7360;DHT22;3720;48.274;7.796;2022-09-27T01:32:07;11.80;99.90
7360;DHT22;3720;48.274;7.796;2022-09-27T01:34:44;11.80;99.90
7360;DHT22;3720;48.274;7.796;2022-09-27T01:37:23;11.80;99.90
7360;DHT22;3720;48.274;7.796;2022-09-27T01:39:59;11.90;99.90
7360;DHT22;3720;48.274;7.796;2022-09-27T01:42:38;11.90;99.90
7360;DHT22;3720;48.274;7.796;2022-09-27T01:45:15;11.90;99.90
7360;DHT22;3720;48.274;7.796;2022-09-27T01:47:50;11.90;99.90
7360;DHT22;3720;48.274;7.796;2022-09-27T01:50:28;11.80;99.90
7360;DHT22;3720;48.274;7.796;2022-09-27T01:53:04;11.90;99.90
7360;DHT22;3720;48.274;7.796;2022-09-27T01:55:38;12.00;99.90
7360;DHT22;3720;48.274;7.796;2022-09-27T01:58:16;11.90;99.90
7360;DHT22;3720;48.274;7.796;2022-09-27T02:00:52;11.90;99.90
7360;DHT22;3720;48.274;7.796;2022-09-27T02:03:30;12.00;99.90
7360;DHT22;3720;48.274;7.796;2022-09-27T02:06:08;12.00;99.90
7360;DHT22;3720;48.274;7.796;2022-09-27T02:08:44;12.00;99.90
7360;DHT22;3720;48.274;7.796;2022-09-27T02:11:17;12.00;99.90
7360;DHT22;3720;48.274;7.796;2022-09-27T02:13:52;12.10;99.90
7360;DHT22;3720;48.274;7.796;2022-09-27T02:16:29;12.10;99.90
7360;DHT22;3720;48.274;7.796;2022-09-27T02:19:09;12.20;99.90
7360;DHT22;3720;48.274;7.796;2022-09-27T02:21:47;12.20;99.90
7360;DHT22;3720;48.274;7.796;2022-09-27T02:24:31;12.20;99.90
7360;DHT22;3720;48.274;7.796;2022-09-27T02:27:11;12.10;99.90
7360;DHT22;3720;48.274;7.796;2022-09-27T02:29:46;12.10;99.90
7360;DHT22;3720;48.274;7.796;2022-09-27T02:32:21;12.20;99.90
7360;DHT22;3720;48.274;7.796;2022-09-27T02:34:56;12.20;99.90
7360;DHT22;3720;48.274;7.796;2022-09-27T02:37:31;12.20;99.90
7360;DHT22;3720;48.274;7.796;2022-09-27T02:40:03;12.20;99.90
7360;DHT22;3720;48.274;7.796;2022-09-27T02:42:36;12.20;99.90
7360;DHT22;3720;48.274;7.796;2022-09-27T02:45:09;12.10;99.90
7360;DHT22;3720;48.274;7.796;2022-09-27T02:47:58;12.10;99.90
7360;DHT22;3720;48.274;7.796;2022-09-27T02:50:48;12.20;99.90
7360;DHT22;3720;48.274;7.796;2022-09-27T02:53:34;12.20;99.90
7360;DHT22;3720;48.274;7.796;2022-09-27T02:56:13;12.20;99.90
7360;DHT22;3720;48.274;7.796;2022-09-27T02:58:55;12.10;99.90
7360;DHT22;3720;48.274;7.796;2022-09-27T03:01:33;12.10;99.90
7360;DHT22;3720;48.274;7.796;2022-09-27T03:04:10;12.10;99.90
7360;DHT22;3720;48.274;7.796;2022-09-27T03:06:47;12.10;99.90
7360;DHT22;3720;48.274;7.796;2022-09-27T03:09:21;12.10;99.90
7360;DHT22;3720;48.274;7.796;2022-09-27T03:11:54;12.10;99.90
7360;DHT22;3720;48.274;7.796;2022-09-27T03:14:26;12.20;99.90
7360;DHT22;3720;48.274;7.796;2022-09-27T03:16:58;12.10;99.90
7360;DHT22;3720;48.274;7.796;2022-09-27T03:19:31;12.10;99.90
7360;DHT22;3720;48.274;7.796;2022-09-27T03:22:05;12.10;99.90
7360;DHT22;3720;48.274;7.796;2022-09-27T03:24:37;12.10;99.90
7360;DHT22;3720;48.274;7.796;2022-09-27T03:27:10;12.00;99.90
7360;DHT22;3720;48.274;7.796;2022-09-27T03:29:42;12.00;99.90
7360;DHT22;3720;48.274;7.796;2022-09-27T03:32:14;11.90;99.90
7360;DHT22;3720;48.274;7.796;2022-09-27T03:34:46;11.90;99.90
7360;DHT22;3720;48.274;7.796;2022-09-27T03:37:20;11.80;99.90
7360;DHT22;3720;48.274;7.796;2022-09-27T03:39:52;11.70;99.90
7360;DHT22;3720;48.274;7.796;2022-09-27T03:42:24;11.60;99.90
7360;DHT22;3720;48.274;7.796;2022-09-27T03:44:56;11.50;99.90
7360;DHT22;3720;48.274;7.796;2022-09-27T03:47:27;11.40;99.90
7360;DHT22;3720;48.274;7.796;2022-09-27T03:49:59;11.20;99.90
7360;DHT22;3720;48.274;7.796;2022-09-27T03:52:33;11.10;99.90
7360;DHT22;3720;48.274;7.796;2022-09-27T03:55:06;10.90;99.90
7360;DHT22;3720;48.274;7.796;2022-09-27T03:57:38;10.90;99.90
7360;DHT22;3720;48.274;7.796;2022-09-27T04:00:14;10.80;99.90
7360;DHT22;3720;48.274;7.796;2022-09-27T04:02:47;10.70;99.90
7360;DHT22;3720;48.274;7.796;2022-09-27T04:05:20;10.70;99.90
7360;DHT22;3720;48.274;7.796;2022-09-27T04:07:53;10.70;99.90
7360;DHT22;3720;48.274;7.796;2022-09-27T04:10:25;10.70;99.90
7360;DHT22;3720;48.274;7.796;2022-09-27T04:12:57;10.70;99.90
7360;DHT22;3720;48.274;7.796;2022-09-27T04:15:30;10.70;99.90
7360;DHT22;3720;48.274;7.796;2022-09-27T04:18:02;10.70;99.90
7360;DHT22;3720;48.274;7.796;2022-09-27T04:20:35;10.60;99.90
7360;DHT22;3720;48.274;7.796;2022-09-27T04:23:08;10.60;99.90
7360;DHT22;3720;48.274;7.796;2022-09-27T04:25:41;10.50;99.90
7360;DHT22;3720;48.274;7.796;2022-09-27T04:28:13;10.50;99.90
7360;DHT22;3720;48.274;7.796;2022-09-27T04:30:45;10.60;99.90
7360;DHT22;3720;48.274;7.796;2022-09-27T04:33:18;10.50;99.90
7360;DHT22;3720;48.274;7.796;2022-09-27T04:35:50;10.50;99.90
7360;DHT22;3720;48.274;7.796;2022-09-27T04:38:41;10.50;99.90
7360;DHT22;3720;48.274;7.796;2022-09-27T04:41:13;10.60;99.90
7360;DHT22;3720;48.274;7.796;2022-09-27T04:43:45;10.60;99.90
7360;DHT22;3720;48.274;7.796;2022-09-27T04:46:17;10.70;99.90
7360;DHT22;3720;48.274;7.796;2022-09-27T04:48:50;10.60;99.90
7360;DHT22;3720;48.274;7.796;2022-09-27T04:51:22;10.60;99.90
7360;DHT22;3720;48.274;7.796;2022-09-27T04:53:56;10.60;99.90
7360;DHT22;3720;48.274;7.796;2022-09-27T04:56:28;10.70;99.90
7360;DHT22;3720;48.274;7.796;2022-09-27T04:59:00;10.70;99.90
7360;DHT22;3720;48.274;7.796;2022-09-27T05:01:32;10.80;99.90
7360;DHT22;3720;48.274;7.796;2022-09-27T05:04:05;10.90;99.90
7360;DHT22;3720;48.274;7.796;2022-09-27T05:06:36;10.90;99.90
7360;DHT22;3720;48.274;7.796;2022-09-27T05:09:10;10.90;99.90
7360;DHT22;3720;48.274;7.796;2022-09-27T05:11:42;10.90;99.90
7360;DHT22;3720;48.274;7.796;2022-09-27T05:14:14;10.90;99.90
7360;DHT22;3720;48.274;7.796;2022-09-27T05:16:46;10.90;99.90
7360;DHT22;3720;48.274;7.796;2022-09-27T05:19:18;10.90;99.90
7360;DHT22;3720;48.274;7.796;2022-09-27T05:21:50;10.90;99.90
7360;DHT22;3720;48.274;7.796;2022-09-27T05:24:24;10.90;99.90
7360;DHT22;3720;48.274;7.796;2022-09-27T05:26:57;10.90;99.90
7360;DHT22;3720;48.274;7.796;2022-09-27T05:29:29;11.00;99.90
7360;DHT22;3720;48.274;7.796;2022-09-27T05:32:01;11.10;99.90
7360;DHT22;3720;48.274;7.796;2022-09-27T05:34:33;11.10;99.90
7360;DHT22;3720;48.274;7.796;2022-09-27T05:37:05;11.10;99.90
7360;DHT22;3720;48.274;7.796;2022-09-27T05:39:38;11.10;99.90
7360;DHT22;3720;48.274;7.796;2022-09-27T05:42:11;11.10;99.90
7360;DHT22;3720;48.274;7.796;2022-09-27T05:44:44;11.10;99.90
7360;DHT22;3720;48.274;7.796;2022-09-27T05:47:17;11.10;99.90
7360;DHT22;3720;48.274;7.796;2022-09-27T05:49:50;11.20;99.90
7360;DHT22;3720;48.274;7.796;2022-09-27T05:52:23;11.20;99.90
7360;DHT22;3720;48.274;7.796;2022-09-27T05:54:57;11.30;99.90
7360;DHT22;3720;48.274;7.796;2022-09-27T05:57:29;11.30;99.90
7360;DHT22;3720;48.274;7.796;2022-09-27T06:00:01;11.30;99.90
7360;DHT22;3720;48.274;7.796;2022-09-27T06:02:34;11.30;99.90
7360;DHT22;3720;48.274;7.796;2022-09-27T06:05:07;11.20;99.90
7360;DHT22;3720;48.274;7.796;2022-09-27T06:07:39;11.20;99.90
7360;DHT22;3720;48.274;7.796;2022-09-27T06:10:12;11.10;99.90
7360;DHT22;3720;48.274;7.796;2022-09-27T06:12:45;11.10;99.90
7360;DHT22;3720;48.274;7.796;2022-09-27T06:15:17;11.00;99.90
7360;DHT22;3720;48.274;7.796;2022-09-27T06:17:49;11.00;99.90
7360;DHT22;3720;48.274;7.796;2022-09-27T06:20:22;11.00;99.90
7360;DHT22;3720;48.274;7.796;2022-09-27T06:22:54;11.00;99.90
7360;DHT22;3720;48.274;7.796;2022-09-27T06:25:27;11.00;99.90
7360;DHT22;3720;48.274;7.796;2022-09-27T06:28:00;11.00;99.90
7360;DHT22;3720;48.274;7.796;2022-09-27T06:30:32;11.00;99.90
7360;DHT22;3720;48.274;7.796;2022-09-27T06:33:04;11.00;99.90
7360;DHT22;3720;48.274;7.796;2022-09-27T06:35:37;11.00;99.90
7360;DHT22;3720;48.274;7.796;2022-09-27T06:38:10;11.00;99.90
7360;DHT22;3720;48.274;7.796;2022-09-27T06:40:44;11.00;99.90
7360;DHT22;3720;48.274;7.796;2022-09-27T06:43:18;11.00;99.90
7360;DHT22;3720;48.274;7.796;2022-09-27T06:45:50;10.90;99.90
7360;DHT22;3720;48.274;7.796;2022-09-27T06:48:23;10.90;99.90
7360;DHT22;3720;48.274;7.796;2022-09-27T06:50:56;10.80;99.90
7360;DHT22;3720;48.274;7.796;2022-09-27T06:53:28;10.80;99.90
7360;DHT22;3720;48.274;7.796;2022-09-27T06:56:02;10.90;99.90
7360;DHT22;3720;48.274;7.796;2022-09-27T06:58:34;10.90;99.90
7360;DHT22;3720;48.274;7.796;2022-09-27T07:01:26;10.90;99.90
7360;DHT22;3720;48.274;7.796;2022-09-27T07:03:59;10.90;99.90
7360;DHT22;3720;48.274;7.796;2022-09-27T07:06:31;10.90;99.90
7360;DHT22;3720;48.274;7.796;2022-09-27T07:09:05;10.90;99.90
7360;DHT22;3720;48.274;7.796;2022-09-27T07:11:38;10.90;99.90
7360;DHT22;3720;48.274;7.796;2022-09-27T07:14:13;10.90;99.90
7360;DHT22;3720;48.274;7.796;2022-09-27T07:16:46;10.90;99.90
7360;DHT22;3720;48.274;7.796;2022-09-27T07:19:19;10.90;99.90
7360;DHT22;3720;48.274;7.796;2022-09-27T07:21:51;11.00;99.90
7360;DHT22;3720;48.274;7.796;2022-09-27T07:24:23;10.90;99.90
7360;DHT22;3720;48.274;7.796;2022-09-27T07:26:57;11.00;99.90
7360;DHT22;3720;48.274;7.796;2022-09-27T07:29:29;11.00;99.90
7360;DHT22;3720;48.274;7.796;2022-09-27T07:32:02;11.00;99.90
7360;DHT22;3720;48.274;7.796;2022-09-27T07:34:34;11.10;99.90
7360;DHT22;3720;48.274;7.796;2022-09-27T07:37:06;11.10;99.90
7360;DHT22;3720;48.274;7.796;2022-09-27T07:39:38;11.20;99.90
7360;DHT22;3720;48.274;7.796;2022-09-27T07:42:12;11.20;99.90
7360;DHT22;3720;48.274;7.796;2022-09-27T07:44:44;11.30;99.90
7360;DHT22;3720;48.274;7.796;2022-09-27T07:47:16;11.30;99.90
7360;DHT22;3720;48.274;7.796;2022-09-27T07:49:49;11.30;99.90
7360;DHT22;3720;48.274;7.796;2022-09-27T07:52:21;11.40;99.90
7360;DHT22;3720;48.274;7.796;2022-09-27T07:54:53;11.40;99.90
7360;DHT22;3720;48.274;7.796;2022-09-27T07:57:27;11.40;99.90
7360;DHT22;3720;48.274;7.796;2022-09-27T07:59:59;11.40;99.90
7360;DHT22;3720;48.274;7.796;2022-09-27T08:02:31;11.40;99.90
7360;DHT22;3720;48.274;7.796;2022-09-27T08:05:04;11.40;99.90
7360;DHT22;3720;48.274;7.796;2022-09-27T08:07:37;11.40;99.90
7360;DHT22;3720;48.274;7.796;2022-09-27T08:10:09;11.40;99.90
7360;DHT22;3720;48.274;7.796;2022-09-27T08:12:43;11.50;99.90
7360;DHT22;3720;48.274;7.796;2022-09-27T08:15:15;11.60;99.90
7360;DHT22;3720;48.274;7.796;2022-09-27T08:17:47;11.60;99.90
7360;DHT22;3720;48.274;7.796;2022-09-27T08:20:20;11.60;99.90
7360;DHT22;3720;48.274;7.796;2022-09-27T08:22:52;11.60;99.90
7360;DHT22;3720;48.274;7.796;2022-09-27T08:25:24;11.60;99.90
7360;DHT22;3720;48.274;7.796;2022-09-27T08:28:01;11.70;99.90
7360;DHT22;3720;48.274;7.796;2022-09-27T08:30:33;11.80;99.90
7360;DHT22;3720;48.274;7.796;2022-09-27T08:33:06;11.80;99.90
7360;DHT22;3720;48.274;7.796;2022-09-27T08:35:38;11.80;99.90
7360;DHT22;3720;48.274;7.796;2022-09-27T08:38:10;11.90;99.90
7360;DHT22;3720;48.274;7.796;2022-09-27T08:40:50;11.90;99.90
7360;DHT22;3720;48.274;7.796;2022-09-27T08:43:33;11.80;99.90
7360;DHT22;3720;48.274;7.796;2022-09-27T08:46:18;11.90;99.90
7360;DHT22;3720;48.274;7.796;2022-09-27T08:48:55;11.90;99.90
7360;DHT22;3720;48.274;7.796;2022-09-27T08:51:31;12.00;99.90
7360;DHT22;3720;48.274;7.796;2022-09-27T08:54:07;12.10;99.90
7360;DHT22;3720;48.274;7.796;2022-09-27T08:56:42;12.30;99.90
7360;DHT22;3720;48.274;7.796;2022-09-27T08:59:18;12.30;99.90
7360;DHT22;3720;48.274;7.796;2022-09-27T09:01:52;12.40;99.90
7360;DHT22;3720;48.274;7.796;2022-09-27T09:04:28;12.50;99.90
7360;DHT22;3720;48.274;7.796;2022-09-27T09:07:08;12.40;99.90
7360;DHT22;3720;48.274;7.796;2022-09-27T09:09:51;12.30;99.90
7360;DHT22;3720;48.274;7.796;2022-09-27T09:12:35;12.30;99.90
7360;DHT22;3720;48.274;7.796;2022-09-27T09:15:32;12.20;99.90
7360;DHT22;3720;48.274;7.796;2022-09-27T09:18:33;12.30;99.90
7360;DHT22;3720;48.274;7.796;2022-09-27T09:21:18;12.30;99.90
7360;DHT22;3720;48.274;7.796;2022-09-27T09:24:08;12.40;99.90
7360;DHT22;3720;48.274;7.796;2022-09-27T09:26:46;12.60;99.90
7360;DHT22;3720;48.274;7.796;2022-09-27T09:29:33;12.60;99.90
7360;DHT22;3720;48.274;7.796;2022-09-27T09:32:18;12.80;99.90
7360;DHT22;3720;48.274;7.796;2022-09-27T09:34:58;12.90;99.90
7360;DHT22;3720;48.274;7.796;2022-09-27T09:37:35;13.10;99.90
7360;DHT22;3720;48.274;7.796;2022-09-27T09:40:16;13.00;99.90
7360;DHT22;3720;48.274;7.796;2022-09-27T09:42:55;13.10;99.90
7360;DHT22;3720;48.274;7.796;2022-09-27T09:45:30;13.30;99.90
7360;DHT22;3720;48.274;7.796;2022-09-27T09:48:08;13.40;99.90
7360;DHT22;3720;48.274;7.796;2022-09-27T09:50:46;13.60;99.90
7360;DHT22;3720;48.274;7.796;2022-09-27T09:53:22;13.60;99.90
7360;DHT22;3720;48.274;7.796;2022-09-27T09:56:00;13.50;99.90
7360;DHT22;3720;48.274;7.796;2022-09-27T09:58:38;13.50;99.90
7360;DHT22;3720;48.274;7.796;2022-09-27T10:01:17;13.40;99.90
7360;DHT22;3720;48.274;7.796;2022-09-27T10:03:51;13.30;99.90
7360;DHT22;3720;48.274;7.796;2022-09-27T10:06:25;13.30;99.90
7360;DHT22;3720;48.274;7.796;2022-09-27T10:08:59;13.30;99.90
7360;DHT22;3720;48.274;7.796;2022-09-27T10:11:35;13.20;99.90
7360;DHT22;3720;48.274;7.796;2022-09-27T10:14:10;13.20;99.90
7360;DHT22;3720;48.274;7.796;2022-09-27T10:16:45;13.20;99.90
7360;DHT22;3720;48.274;7.796;2022-09-27T10:19:26;13.20;99.90
7360;DHT22;3720;48.274;7.796;2022-09-27T10:22:02;13.10;99.90
7360;DHT22;3720;48.274;7.796;2022-09-27T10:24:53;13.10;99.90
7360;DHT22;3720;48.274;7.796;2022-09-27T10:27:26;13.10;99.90
7360;DHT22;3720;48.274;7.796;2022-09-27T10:29:58;13.00;99.90
7360;DHT22;3720;48.274;7.796;2022-09-27T10:32:33;13.00;99.90
7360;DHT22;3720;48.274;7.796;2022-09-27T10:35:31;13.00;99.90
7360;DHT22;3720;48.274;7.796;2022-09-27T10:38:26;13.00;99.90
7360;DHT22;3720;48.274;7.796;2022-09-27T10:41:14;13.00;99.90
7360;DHT22;3720;48.274;7.796;2022-09-27T10:43:47;13.00;99.90
7360;DHT22;3720;48.274;7.796;2022-09-27T10:46:24;13.00;99.90
7360;DHT22;3720;48.274;7.796;2022-09-27T10:49:16;13.00;99.90
7360;DHT22;3720;48.274;7.796;2022-09-27T10:51:52;13.00;99.90
7360;DHT22;3720;48.274;7.796;2022-09-27T10:54:27;13.00;99.90
7360;DHT22;3720;48.274;7.796;2022-09-27T10:57:01;13.00;99.90
7360;DHT22;3720;48.274;7.796;2022-09-27T10:59:37;13.00;99.90
7360;DHT22;3720;48.274;7.796;2022-09-27T11:02:18;13.00;99.90
7360;DHT22;3720;48.274;7.796;2022-09-27T11:05:09;13.00;99.90
7360;DHT22;3720;48.274;7.796;2022-09-27T11:07:51;12.90;99.90
7360;DHT22;3720;48.274;7.796;2022-09-27T11:10:25;12.80;99.90
7360;DHT22;3720;48.274;7.796;2022-09-27T11:13:10;12.80;99.90
7360;DHT22;3720;48.274;7.796;2022-09-27T11:15:55;12.80;99.90
7360;DHT22;3720;48.274;7.796;2022-09-27T11:18:35;12.80;99.90
7360;DHT22;3720;48.274;7.796;2022-09-27T11:21:18;12.80;99.90
7360;DHT22;3720;48.274;7.796;2022-09-27T11:24:11;12.80;99.90
7360;DHT22;3720;48.274;7.796;2022-09-27T11:26:53;12.80;99.90
7360;DHT22;3720;48.274;7.796;2022-09-27T11:29:35;12.90;99.90
7360;DHT22;3720;48.274;7.796;2022-09-27T11:32:17;12.90;99.90
7360;DHT22;3720;48.274;7.796;2022-09-27T11:35:24;12.90;99.90
7360;DHT22;3720;48.274;7.796;2022-09-27T11:38:06;12.90;99.90
7360;DHT22;3720;48.274;7.796;2022-09-27T11:40:59;12.70;99.90
7360;DHT22;3720;48.274;7.796;2022-09-27T11:43:46;12.70;99.90
7360;DHT22;3720;48.274;7.796;2022-09-27T11:46:23;12.50;99.90
7360;DHT22;3720;48.274;7.796;2022-09-27T11:52:26;12.10;99.90
7360;DHT22;3720;48.274;7.796;2022-09-27T11:55:09;11.90;99.90
7360;DHT22;3720;48.274;7.796;2022-09-27T11:57:51;11.80;99.90
7360;DHT22;3720;48.274;7.796;2022-09-27T12:00:39;11.80;99.90
7360;DHT22;3720;48.274;7.796;2022-09-27T12:04:01;11.80;99.90
7360;DHT22;3720;48.274;7.796;2022-09-27T12:06:47;11.90;99.90
7360;DHT22;3720;48.274;7.796;2022-09-27T12:09:24;12.00;99.90
7360;DHT22;3720;48.274;7.796;2022-09-27T12:12:02;12.10;99.90
7360;DHT22;3720;48.274;7.796;2022-09-27T12:14:41;12.40;99.90
7360;DHT22;3720;48.274;7.796;2022-09-27T12:17:17;12.90;99.90
7360;DHT22;3720;48.274;7.796;2022-09-27T12:19:53;13.20;99.90
7360;DHT22;3720;48.274;7.796;2022-09-27T12:22:29;13.30;99.90
7360;DHT22;3720;48.274;7.796;2022-09-27T12:25:04;13.50;99.90
7360;DHT22;3720;48.274;7.796;2022-09-27T12:27:40;14.00;99.90
7360;DHT22;3720;48.274;7.796;2022-09-27T12:30:15;14.30;99.90
7360;DHT22;3720;48.274;7.796;2022-09-27T12:32:54;14.40;99.90
7360;DHT22;3720;48.274;7.796;2022-09-27T12:35:29;14.10;99.90
7360;DHT22;3720;48.274;7.796;2022-09-27T12:38:08;13.90;99.90
7360;DHT22;3720;48.274;7.796;2022-09-27T12:40:44;13.80;99.90
7360;DHT22;3720;48.274;7.796;2022-09-27T12:43:19;13.70;99.90
7360;DHT22;3720;48.274;7.796;2022-09-27T12:46:04;13.60;99.90
7360;DHT22;3720;48.274;7.796;2022-09-27T12:48:43;13.50;99.90
7360;DHT22;3720;48.274;7.796;2022-09-27T12:51:20;13.40;99.90
7360;DHT22;3720;48.274;7.796;2022-09-27T12:54:08;13.30;99.90
7360;DHT22;3720;48.274;7.796;2022-09-27T12:56:49;13.30;99.90
7360;DHT22;3720;48.274;7.796;2022-09-27T12:59:52;13.30;99.90
7360;DHT22;3720;48.274;7.796;2022-09-27T13:05:56;13.10;99.90
7360;DHT22;3720;48.274;7.796;2022-09-27T13:08:52;13.10;99.90
7360;DHT22;3720;48.274;7.796;2022-09-27T13:11:40;13.10;99.90
7360;DHT22;3720;48.274;7.796;2022-09-27T13:14:17;13.00;99.90
7360;DHT22;3720;48.274;7.796;2022-09-27T13:16:51;13.10;99.90
7360;DHT22;3720;48.274;7.796;2022-09-27T13:19:42;13.10;99.90
7360;DHT22;3720;48.274;7.796;2022-09-27T13:22:37;13.00;99.90
7360;DHT22;3720;48.274;7.796;2022-09-27T13:28:31;12.50;99.90
7360;DHT22;3720;48.274;7.796;2022-09-27T13:31:06;12.10;99.90
7360;DHT22;3720;48.274;7.796;2022-09-27T13:33:44;11.90;99.90
7360;DHT22;3720;48.274;7.796;2022-09-27T13:36:23;11.70;99.90
7360;DHT22;3720;48.274;7.796;2022-09-27T13:39:17;11.60;99.90
7360;DHT22;3720;48.274;7.796;2022-09-27T13:42:15;11.40;99.90
7360;DHT22;3720;48.274;7.796;2022-09-27T13:45:00;11.30;99.90
7360;DHT22;3720;48.274;7.796;2022-09-27T13:47:38;11.20;99.90
7360;DHT22;3720;48.274;7.796;2022-09-27T13:50:20;11.20;99.90
7360;DHT22;3720;48.274;7.796;2022-09-27T13:53:01;11.40;99.90
7360;DHT22;3720;48.274;7.796;2022-09-27T13:55:40;11.70;99.90
7360;DHT22;3720;48.274;7.796;2022-09-27T14:01:08;12.20;99.90
7360;DHT22;3720;48.274;7.796;2022-09-27T14:03:53;12.30;99.90
7360;DHT22;3720;48.274;7.796;2022-09-27T14:06:29;12.40;99.90
7360;DHT22;3720;48.274;7.796;2022-09-27T14:09:06;12.60;99.90
7360;DHT22;3720;48.274;7.796;2022-09-27T14:11:49;12.90;99.90
7360;DHT22;3720;48.274;7.796;2022-09-27T14:14:26;13.20;99.90
7360;DHT22;3720;48.274;7.796;2022-09-27T14:16:59;13.60;99.90
7360;DHT22;3720;48.274;7.796;2022-09-27T14:19:31;13.90;99.90
7360;DHT22;3720;48.274;7.796;2022-09-27T14:22:11;14.10;99.90
7360;DHT22;3720;48.274;7.796;2022-09-27T14:24:46;14.40;99.90
7360;DHT22;3720;48.274;7.796;2022-09-27T14:27:20;14.60;99.90
7360;DHT22;3720;48.274;7.796;2022-09-27T14:29:55;14.70;99.90
7360;DHT22;3720;48.274;7.796;2022-09-27T14:32:29;14.90;99.90
7360;DHT22;3720;48.274;7.796;2022-09-27T14:35:05;14.70;99.90
7360;DHT22;3720;48.274;7.796;2022-09-27T14:37:57;14.50;99.90
7360;DHT22;3720;48.274;7.796;2022-09-27T14:40:30;14.40;99.90
7360;DHT22;3720;48.274;7.796;2022-09-27T14:43:12;14.30;99.90
7360;DHT22;3720;48.274;7.796;2022-09-27T14:45:47;14.20;99.90
7360;DHT22;3720;48.274;7.796;2022-09-27T14:48:27;14.00;99.90
7360;DHT22;3720;48.274;7.796;2022-09-27T14:51:01;13.90;99.90
7360;DHT22;3720;48.274;7.796;2022-09-27T14:53:36;13.80;99.90
7360;DHT22;3720;48.274;7.796;2022-09-27T14:56:14;13.70;99.90
7360;DHT22;3720;48.274;7.796;2022-09-27T14:58:52;13.60;99.90
7360;DHT22;3720;48.274;7.796;2022-09-27T15:01:26;13.60;99.90
7360;DHT22;3720;48.274;7.796;2022-09-27T15:04:04;13.50;99.90
7360;DHT22;3720;48.274;7.796;2022-09-27T15:06:36;13.50;99.90
7360;DHT22;3720;48.274;7.796;2022-09-27T15:09:11;13.50;99.90
7360;DHT22;3720;48.274;7.796;2022-09-27T15:11:47;13.60;99.90
7360;DHT22;3720;48.274;7.796;2022-09-27T15:14:22;13.50;99.90
7360;DHT22;3720;48.274;7.796;2022-09-27T15:16:55;13.60;99.90
7360;DHT22;3720;48.274;7.796;2022-09-27T15:19:31;13.60;99.90
7360;DHT22;3720;48.274;7.796;2022-09-27T15:22:28;13.60;99.90
7360;DHT22;3720;48.274;7.796;2022-09-27T15:25:06;13.70;99.90
7360;DHT22;3720;48.274;7.796;2022-09-27T15:27:38;13.60;99.90
7360;DHT22;3720;48.274;7.796;2022-09-27T15:30:16;13.70;99.90
7360;DHT22;3720;48.274;7.796;2022-09-27T15:32:50;13.60;99.90
7360;DHT22;3720;48.274;7.796;2022-09-27T15:35:26;13.50;99.90
7360;DHT22;3720;48.274;7.796;2022-09-27T15:38:22;13.60;99.90
7360;DHT22;3720;48.274;7.796;2022-09-27T15:41:13;13.50;99.90
7360;DHT22;3720;48.274;7.796;2022-09-27T15:43:46;13.50;99.90
7360;DHT22;3720;48.274;7.796;2022-09-27T15:46:34;13.40;99.90
7360;DHT22;3720;48.274;7.796;2022-09-27T15:49:27;13.40;99.90
7360;DHT22;3720;48.274;7.796;2022-09-27T15:52:04;13.30;99.90
7360;DHT22;3720;48.274;7.796;2022-09-27T15:54:37;13.20;99.90
7360;DHT22;3720;48.274;7.796;2022-09-27T15:57:10;13.20;99.90
7360;DHT22;3720;48.274;7.796;2022-09-27T15:59:42;13.20;99.90
7360;DHT22;3720;48.274;7.796;2022-09-27T16:02:16;13.10;99.90
7360;DHT22;3720;48.274;7.796;2022-09-27T16:04:48;13.10;99.90
7360;DHT22;3720;48.274;7.796;2022-09-27T16:07:20;13.00;99.90
7360;DHT22;3720;48.274;7.796;2022-09-27T16:09:52;12.80;99.90
7360;DHT22;3720;48.274;7.796;2022-09-27T16:12:25;12.60;99.90
7360;DHT22;3720;48.274;7.796;2022-09-27T16:14:59;12.30;99.90
7360;DHT22;3720;48.274;7.796;2022-09-27T16:17:32;12.20;99.90
7360;DHT22;3720;48.274;7.796;2022-09-27T16:20:14;12.00;99.90
7360;DHT22;3720;48.274;7.796;2022-09-27T16:22:47;11.80;99.90
7360;DHT22;3720;48.274;7.796;2022-09-27T16:25:20;11.80;99.90
7360;DHT22;3720;48.274;7.796;2022-09-27T16:27:56;11.70;99.90
7360;DHT22;3720;48.274;7.796;2022-09-27T16:30:28;11.70;99.90
7360;DHT22;3720;48.274;7.796;2022-09-27T16:33:02;11.70;99.90
7360;DHT22;3720;48.274;7.796;2022-09-27T16:35:34;11.60;99.90
7360;DHT22;3720;48.274;7.796;2022-09-27T16:38:09;11.70;99.90
7360;DHT22;3720;48.274;7.796;2022-09-27T16:40:41;11.70;99.90
7360;DHT22;3720;48.274;7.796;2022-09-27T16:43:13;11.70;99.90
7360;DHT22;3720;48.274;7.796;2022-09-27T16:45:45;11.60;99.90
7360;DHT22;3720;48.274;7.796;2022-09-27T16:48:19;11.60;99.90
7360;DHT22;3720;48.274;7.796;2022-09-27T16:50:51;11.60;99.90
7360;DHT22;3720;48.274;7.796;2022-09-27T16:53:40;11.60;99.90
7360;DHT22;3720;48.274;7.796;2022-09-27T16:56:12;11.40;99.90
7360;DHT22;3720;48.274;7.796;2022-09-27T16:58:45;11.40;99.90
7360;DHT22;3720;48.274;7.796;2022-09-27T17:01:17;11.30;99.90
7360;DHT22;3720;48.274;7.796;2022-09-27T17:03:51;11.30;99.90
7360;DHT22;3720;48.274;7.796;2022-09-27T17:06:23;11.30;99.90
7360;DHT22;3720;48.274;7.796;2022-09-27T17:08:55;11.30;99.90
7360;DHT22;3720;48.274;7.796;2022-09-27T17:11:27;11.30;99.90
7360;DHT22;3720;48.274;7.796;2022-09-27T17:14:00;11.20;99.90
7360;DHT22;3720;48.274;7.796;2022-09-27T17:16:33;11.30;99.90
7360;DHT22;3720;48.274;7.796;2022-09-27T17:19:07;11.20;99.90
7360;DHT22;3720;48.274;7.796;2022-09-27T17:21:40;11.20;99.90